Cameron, Montana
Current Conditions -  °F | °C
As of 5:53 AM on Saturday 22 Nov 2014 (Local Time) from KDLN Reporting Station
Scattered Clouds Scattered Clouds  
Wind Chill: 32°   Ceiling: Unl
Heat Index: 41°   Visibility: 10mi
Dew Point: 29°   Wind: 21mph
Humidity: 62%   Direction: 200°SSW
Pressure: 29.49"   Gusts: 28mph
Location:  45.2°N, 111.68°W
Report Text: KDLN 221253Z AUTO 20018G24KT 10SM FEW039 SCT070 05/M02 A2949 RMK AO2 SLP988 T00501017
Loading
Personal Weather Stations






























Interactive Weather Map New forecast layout! Learn more

10-Day Weather Forecast

Advertisements
Track Severe Weather on mobile